^^
MeteoGriva-Weather Station Historical Data
Daily Summary for June 10, 2020 Units:  Metric    English   Both
Daily Weekly Monthly Yearly Custom
  High: Low: Average:
Temperature: 16 °C 9.7 °C 12.4 °C
Dew Point: 12.7 °C 9.3 °C 10.5 °C
Humidity: 99% 78.1% 89%
Wind Speed: 3.4km/h 0km/h 0.1km/h
Wind Gust: 12.2km/h - -
Wind- - SE
Pressure: 1026.1 hPa 1023.0 hPa -
Precipitation: 0.0 mm    
Historical Graphs
 
 
Tabular Data for June 10, 2020
Time Temperature Dew Point Pressure Wind Wind Speed Wind Gust Humidity Rainfall Rate (Hourly) solar
00:04 10.6 °C 10.1 °C 1023.0 hPa Calm     97.3% 0.0 mm 0 W/m2
00:09 10.6 °C 10.1 °C 1023.0 hPa Calm     97.1% 0.0 mm 0 W/m2
00:14 10.6 °C 10.2 °C 1023.0 hPa Calm     97.7% 0.0 mm 0 W/m2
00:19 10.6 °C 10.1 °C 1023.0 hPa Calm     97.2% 0.0 mm 0 W/m2
00:24 10.6 °C 10.2 °C 1023.0 hPa Calm     97.2% 0.0 mm 0 W/m2
00:29 10.6 °C 10.2 °C 1023.0 hPa Calm     97.4% 0.0 mm 0 W/m2
00:34 10.6 °C 10.3 °C 1023.0 hPa Calm     98.7% 0.0 mm 0 W/m2
00:39 10.5 °C 10.3 °C 1023.0 hPa Calm     99% 0.0 mm 0 W/m2
00:44 10.3 °C 10.1 °C 1023.0 hPa Calm     99% 0.0 mm 0 W/m2
00:49 10.2 °C 9.9 °C 1023.0 hPa Calm     98.4% 0.0 mm 0 W/m2
00:54 10.2 °C 9.7 °C 1023.0 hPa Calm     97.1% 0.0 mm 0 W/m2
00:59 10.3 °C 9.8 °C 1023.0 hPa Calm     97% 0.0 mm 0 W/m2
01:04 10.5 °C 10 °C 1023.0 hPa Calm     97% 0.0 mm 0 W/m2
01:09 10.6 °C 10.2 °C 1023.0 hPa Calm     97.4% 0.0 mm 0 W/m2
01:14 10.6 °C 10.3 °C 1023.0 hPa Calm     98% 0.0 mm 0 W/m2
01:19 10.5 °C 10.2 °C 1023.0 hPa Calm     98% 0.0 mm 0 W/m2
01:24 10.3 °C 10 °C 1023.0 hPa Calm     98.3% 0.0 mm 0 W/m2
01:29 10.1 °C 9.9 °C 1023.0 hPa Calm     98.8% 0.0 mm 0 W/m2
01:34 10.1 °C 9.8 °C 1023.0 hPa Calm     98.2% 0.0 mm 0 W/m2
01:39 10.1 °C 9.8 °C 1023.0 hPa Calm     98% 0.0 mm 0 W/m2
01:44 10.2 °C 9.8 °C 1023.0 hPa Calm     98.1% 0.0 mm 0 W/m2
01:49 10.2 °C 9.9 °C 1023.4 hPa Calm     98% 0.0 mm 0 W/m2
01:54 10.2 °C 9.7 °C 1023.4 hPa Calm     97.1% 0.0 mm 0 W/m2
01:59 10.3 °C 9.8 °C 1023.4 hPa Calm     97% 0.0 mm 0 W/m2
02:04 10.3 °C 9.8 °C 1023.4 hPa Calm     97% 0.0 mm 0 W/m2
02:09 10.3 °C 10 °C 1023.0 hPa Calm     98.4% 0.0 mm 0 W/m2
02:14 10.3 °C 10 °C 1023.4 hPa Calm     98.3% 0.0 mm 0 W/m2
02:19 10.3 °C 10 °C 1023.4 hPa Calm     98% 0.0 mm 0 W/m2
02:24 10.2 °C 10 °C 1023.4 hPa Calm     99% 0.0 mm 0 W/m2
02:29 10 °C 9.8 °C 1023.4 hPa Calm     98.9% 0.0 mm 0 W/m2
02:34 10 °C 9.8 °C 1023.4 hPa Calm     98.7% 0.0 mm 0 W/m2
02:39 9.9 °C 9.7 °C 1023.4 hPa Calm     99% 0.0 mm 0 W/m2
02:44 10 °C 9.7 °C 1023.4 hPa Calm     98.4% 0.0 mm 0 W/m2
02:49 10.1 °C 9.8 °C 1023.4 hPa Calm     98% 0.0 mm 0 W/m2
02:54 10.1 °C 9.8 °C 1023.4 hPa Calm     98% 0.0 mm 0 W/m2
02:59 10.1 °C 9.8 °C 1023.4 hPa Calm     98% 0.0 mm 0 W/m2
03:04 10 °C 9.8 °C 1023.4 hPa Calm     99% 0.0 mm 0 W/m2
03:09 9.9 °C 9.6 °C 1023.0 hPa Calm     98.3% 0.0 mm 0 W/m2
03:14 9.9 °C 9.5 °C 1023.4 hPa Calm     97.7% 0.0 mm 0 W/m2
03:19 9.9 °C 9.4 °C 1023.0 hPa Calm     97% 0.0 mm 0 W/m2
03:24 10 °C 9.5 °C 1023.4 hPa Calm     96.8% 0.0 mm 0 W/m2
03:29 10.3 °C 9.7 °C 1023.4 hPa Calm     96% 0.0 mm 0 W/m2
03:34 10.2 °C 9.7 °C 1023.0 hPa Calm     96.9% 0.0 mm 0 W/m2
03:39 10.2 °C 9.8 °C 1023.0 hPa Calm     97.9% 0.0 mm 0 W/m2
03:44 10 °C 9.7 °C 1023.0 hPa Calm     98% 0.0 mm 0 W/m2
03:49 9.7 °C 9.4 °C 1023.4 hPa Calm     98% 0.0 mm 0 W/m2
03:54 9.7 °C 9.4 °C 1023.4 hPa Calm     98% 0.0 mm 0 W/m2
03:59 9.7 °C 9.3 °C 1023.0 hPa Calm     97.5% 0.0 mm 0 W/m2
04:04 9.8 °C 9.3 °C 1023.4 hPa Calm     97% 0.0 mm 0 W/m2
04:09 10 °C 9.4 °C 1023.0 hPa Calm     96.4% 0.0 mm 0 W/m2
04:14 10 °C 9.5 °C 1023.0 hPa Calm     97% 0.0 mm 0 W/m2
04:19 9.9 °C 9.4 °C 1023.4 hPa Calm     96.9% 0.0 mm 0 W/m2
04:24 10 °C 9.4 °C 1023.4 hPa Calm     96% 0.0 mm 0 W/m2
04:29 10.2 °C 9.6 °C 1023.4 hPa Calm     96% 0.0 mm 0 W/m2
04:34 10.2 °C 9.5 °C 1023.4 hPa Calm     95.4% 0.0 mm 0 W/m2
04:39 10.2 °C 9.5 °C 1023.4 hPa Calm     95.4% 0.0 mm 0 W/m2
04:44 10.2 °C 9.6 °C 1023.4 hPa Calm     95.8% 0.0 mm 0 W/m2
04:49 10.5 °C 9.8 °C 1023.7 hPa Calm     95.7% 0.0 mm 0 W/m2
04:54 10.5 °C 9.8 °C 1023.7 hPa Calm     95.2% 0.0 mm 0 W/m2
04:59 10.5 °C 9.7 °C 1023.7 hPa Calm     94.6% 0.0 mm 0 W/m2
05:04 10.6 °C 9.8 °C 1023.7 hPa Calm     94.6% 0.0 mm 0 W/m2
05:09 10.5 °C 9.9 °C 1023.7 hPa Calm     96% 0.0 mm 0 W/m2
05:14 10.5 °C 9.9 °C 1023.7 hPa Calm     96% 0.0 mm 0 W/m2
05:19 10.5 °C 9.8 °C 1023.7 hPa Calm     95.7% 0.0 mm 0 W/m2
05:24 10.5 °C 9.9 °C 1023.7 hPa Calm     96% 0.0 mm 0 W/m2
05:29 10.5 °C 9.9 °C 1023.7 hPa Calm     96% 0.0 mm 0 W/m2
05:34 10.5 °C 9.8 °C 1023.7 hPa Calm     95.4% 0.0 mm 0 W/m2
05:39 10.4 °C 9.8 °C 1023.7 hPa Calm     95.8% 0.0 mm 0 W/m2
05:44 10.4 °C 9.8 °C 1023.7 hPa Calm     96% 0.0 mm 0 W/m2
05:49 10.3 °C 9.8 °C 1023.7 hPa Calm     96.3% 0.0 mm 0 W/m2
05:54 10.3 °C 9.9 °C 1023.7 hPa Calm     97.7% 0.0 mm 0 W/m2
05:59 10.3 °C 10 °C 1023.7 hPa Calm     98% 0.0 mm 0 W/m2
06:04 10.2 °C 10 °C 1023.7 hPa Calm     98.3% 0.0 mm 0 W/m2
06:09 10 °C 9.8 °C 1023.7 hPa Calm     99% 0.0 mm 0 W/m2
06:14 9.9 °C 9.7 °C 1023.7 hPa Calm     98.7% 0.0 mm 0 W/m2
06:19 10 °C 9.7 °C 1023.7 hPa Calm     98% 0.0 mm 0 W/m2
06:24 10 °C 9.5 °C 1023.7 hPa Calm     97% 0.0 mm 0 W/m2
06:29 10.2 °C 9.8 °C 1024.0 hPa Calm     97.4% 0.0 mm 0 W/m2
06:34 10.2 °C 10 °C 1024.0 hPa Calm     99% 0.0 mm 0 W/m2
06:39 10.2 °C 9.9 °C 1024.0 hPa Calm     98.3% 0.0 mm 0 W/m2
06:44 10.2 °C 9.8 °C 1024.0 hPa Calm     97.3% 0.0 mm 0 W/m2
06:49 10.3 °C 9.9 °C 1024.0 hPa Calm     97.4% 0.0 mm 0 W/m2
06:54 10.3 °C 9.8 °C 1024.0 hPa Calm     97% 0.0 mm 0 W/m2
06:59 10.3 °C 9.8 °C 1024.0 hPa Calm     97% 0.0 mm 0 W/m2
07:04 10.3 °C 9.8 °C 1024.0 hPa Calm     97.1% 0.0 mm 0 W/m2
07:09 10.3 °C 9.9 °C 1024.0 hPa Calm     97.3% 0.0 mm 0 W/m2
07:14 10.3 °C 9.8 °C 1024.0 hPa Calm     96.3% 0.0 mm 0 W/m2
07:19 10.4 °C 9.7 °C 1024.0 hPa Calm     95.7% 0.0 mm 0 W/m2
07:24 10.4 °C 9.8 °C 1024.0 hPa Calm     95.9% 0.0 mm 2 W/m2
07:29 10.6 °C 10 °C 1024.4 hPa Calm     96.1% 0.0 mm 5 W/m2
07:34 10.5 °C 10 °C 1024.4 hPa Calm     97% 0.0 mm 7 W/m2
07:39 10.5 °C 10 °C 1024.4 hPa Calm     96.3% 0.0 mm 10 W/m2
07:44 10.6 °C 9.8 °C 1024.4 hPa Calm     95% 0.0 mm 14 W/m2
07:49 10.8 °C 10 °C 1024.7 hPa Calm     95% 0.0 mm 19 W/m2
07:54 10.9 °C 10.1 °C 1024.7 hPa Calm     94.9% 0.0 mm 22 W/m2
07:59 10.9 °C 9.9 °C 1024.7 hPa Calm     93.7% 0.0 mm 25 W/m2
08:04 10.9 °C 9.8 °C 1024.7 hPa Calm     93% 0.0 mm 28 W/m2
08:09 11.2 °C 10.1 °C 1024.7 hPa Calm     93% 0.0 mm 33 W/m2
08:14 11.3 °C 10.2 °C 1024.7 hPa Calm     93.1% 0.0 mm 40 W/m2
08:19 11.3 °C 10.3 °C 1024.7 hPa Calm     93.3% 0.0 mm 47 W/m2
08:24 11.3 °C 10.1 °C 1025.1 hPa Calm     92% 0.0 mm 58 W/m2
08:28 12.3 °C 10.6 °C 1025.1 hPa Calm     89.5% 0.0 mm 63 W/m2
08:34 12.5 °C 10.5 °C 1024.7 hPa Calm     87.3% 0.0 mm 70 W/m2
08:39 12.6 °C 10.7 °C 1025.1 hPa Calm     87.9% 0.0 mm 67 W/m2
08:44 12.7 °C 10.6 °C 1025.1 hPa Calm     87.2% 0.0 mm 71 W/m2
08:49 13 °C 11.1 °C 1025.1 hPa Calm     87.8% 0.0 mm 77 W/m2
08:54 13.1 °C 11.3 °C 1025.1 hPa Calm     89% 0.0 mm 81 W/m2
08:59 13.1 °C 11.2 °C 1025.1 hPa Calm     88% 0.0 mm 83 W/m2
09:04 13.1 °C 11 °C 1025.1 hPa Calm     87% 0.0 mm 84 W/m2
09:09 12.7 °C 11 °C 1025.1 hPa Calm     89.6% 0.0 mm 90 W/m2
09:14 12.6 °C 11.3 °C 1025.1 hPa Calm     92% 0.0 mm 97 W/m2
09:19 12.5 °C 11.2 °C 1025.1 hPa Calm     91.7% 0.0 mm 99 W/m2
09:24 12.5 °C 11.1 °C 1025.1 hPa Calm     91.1% 0.0 mm 118 W/m2
09:29 12.7 °C 10.8 °C 1025.1 hPa Calm     88.1% 0.0 mm 118 W/m2
09:34 12.8 °C 10.8 °C 1025.1 hPa Calm     87.7% 0.0 mm 115 W/m2
09:39 12.8 °C 10.7 °C 1025.1 hPa Calm     87.1% 0.0 mm 116 W/m2
09:44 12.9 °C 10.7 °C 1025.1 hPa Calm     86.7% 0.0 mm 122 W/m2
09:49 13.4 °C 11.2 °C 1025.1 hPa Calm     86.4% 0.0 mm 134 W/m2
09:54 13.8 °C 11.6 °C 1025.1 hPa Calm     86.3% 0.0 mm 140 W/m2
09:59 13.7 °C 11.7 °C 1025.1 hPa Calm     87.4% 0.0 mm 133 W/m2
10:04 13.7 °C 11.8 °C 1025.1 hPa ENE 0.3 km/h 4 km/h 88.3% 0.0 mm 137 W/m2
10:09 13.6 °C 11.9 °C 1025.1 hPa Calm     89.6% 0.0 mm 129 W/m2
10:14 13.5 °C 11.8 °C 1025.1 hPa Calm     89.6% 0.0 mm 129 W/m2
10:19 13.4 °C 11.8 °C 1025.1 hPa Calm     90.1% 0.0 mm 127 W/m2
10:24 13.4 °C 11.7 °C 1025.1 hPa Calm     89.3% 0.0 mm 131 W/m2
10:29 13.3 °C 11.6 °C 1025.1 hPa Calm     89.5% 0.0 mm 148 W/m2
10:34 13.3 °C 11.5 °C 1025.1 hPa Calm     89% 0.0 mm 174 W/m2
10:39 13.4 °C 11.3 °C 1025.1 hPa Calm   4 km/h 87.1% 0.0 mm 182 W/m2
10:44 13.5 °C 11.5 °C 1025.1 hPa NE 1.3 km/h 7.9 km/h 87.3% 0.0 mm 179 W/m2
10:49 13.6 °C 11.6 °C 1025.1 hPa NE 0.9 km/h 7.9 km/h 87.7% 0.0 mm 148 W/m2
10:54 13.6 °C 11.5 °C 1025.1 hPa Calm   4 km/h 86.9% 0.0 mm 145 W/m2
10:59 13.7 °C 11.4 °C 1025.1 hPa Calm     86% 0.0 mm 149 W/m2
11:04 13.9 °C 11 °C 1025.1 hPa Calm     82.8% 0.0 mm 157 W/m2
11:09 14.7 °C 11.6 °C 1025.1 hPa Calm     81.7% 0.0 mm 164 W/m2
11:14 15.4 °C 12.2 °C 1025.1 hPa ENE 0.4 km/h 7.9 km/h 80.9% 0.0 mm 176 W/m2
11:17 15.4 °C 12.3 °C 1025.1 hPa SE 2.3 km/h 7.9 km/h 81.6% 0.0 mm 180 W/m2
11:23 15.5 °C 12.3 °C 1025.1 hPa ESE 0.1 km/h 4 km/h 81.3% 0.0 mm 188 W/m2
11:29 15.6 °C 12.4 °C 1025.1 hPa ENE 2 km/h 12.2 km/h 81.4% 0.0 mm 191 W/m2
11:34 15.6 °C 12.7 °C 1025.1 hPa East 1.6 km/h 12.2 km/h 83.3% 0.0 mm 187 W/m2
11:39 15.5 °C 12.4 °C 1025.1 hPa SE 0.4 km/h 12.2 km/h 82.1% 0.0 mm 166 W/m2
11:44 15.4 °C 12.5 °C 1025.1 hPa SSE 0.3 km/h 7.9 km/h 82.8% 0.0 mm 164 W/m2
11:49 15.3 °C 12.2 °C 1025.1 hPa SE 1.4 km/h 7.9 km/h 82.2% 0.0 mm 198 W/m2
11:54 15.1 °C 12.1 °C 1025.1 hPa SE 0.4 km/h 7.9 km/h 82.6% 0.0 mm 165 W/m2
11:59 15.1 °C 12.1 °C 1025.1 hPa ENE 0.9 km/h 7.9 km/h 82.7% 0.0 mm 164 W/m2
12:04 15.1 °C 12.1 °C 1024.7 hPa ENE 0.3 km/h 7.9 km/h 82.3% 0.0 mm 274 W/m2
12:09 15.2 °C 12.1 °C 1024.7 hPa ESE 1.2 km/h 7.9 km/h 82.2% 0.0 mm 209 W/m2
12:14 15.3 °C 12.2 °C 1024.7 hPa SE 1.2 km/h 12.2 km/h 81.7% 0.0 mm 330 W/m2
12:19 15.4 °C 12.2 °C 1024.7 hPa ESE 2.4 km/h 7.9 km/h 81.4% 0.0 mm 331 W/m2
12:24 15.4 °C 12.1 °C 1024.7 hPa SE 3.4 km/h 12.2 km/h 80.4% 0.0 mm 326 W/m2
12:29 15.4 °C 12.1 °C 1024.7 hPa NE 2.1 km/h 12.2 km/h 80.7% 0.0 mm 310 W/m2
12:34 15.3 °C 12.1 °C 1024.7 hPa SE 2.3 km/h 12.2 km/h 81.2% 0.0 mm 312 W/m2
12:39 15.3 °C 12 °C 1024.4 hPa ESE 0.4 km/h 7.9 km/h 80.4% 0.0 mm 320 W/m2
12:44 15.4 °C 12.2 °C 1024.4 hPa SE 1.5 km/h 7.9 km/h 80.8% 0.0 mm 321 W/m2
12:49 15.3 °C 12.2 °C 1024.4 hPa SE 1.3 km/h 12.2 km/h 81.3% 0.0 mm 147 W/m2
12:54 15 °C 12.2 °C 1024.7 hPa SSE 0.3 km/h 12.2 km/h 83.4% 0.0 mm 102 W/m2
12:59 14.9 °C 12.4 °C 1024.7 hPa ENE 1.2 km/h 7.9 km/h 84.8% 0.0 mm 155 W/m2
13:04 14.8 °C 12.3 °C 1024.4 hPa Calm     85% 0.0 mm 201 W/m2
13:09 14.6 °C 12.1 °C 1024.4 hPa Calm     85% 0.0 mm 123 W/m2
13:14 14.3 °C 11.6 °C 1024.4 hPa Calm     84.2% 0.0 mm 173 W/m2
13:19 14.2 °C 11.7 °C 1024.4 hPa Calm   4 km/h 84.6% 0.0 mm 298 W/m2
13:24 14.3 °C 11.7 °C 1024.0 hPa Calm     84.3% 0.0 mm 312 W/m2
13:29 14.4 °C 11.7 °C 1024.0 hPa Calm     83.9% 0.0 mm 318 W/m2
13:34 14.9 °C 12 °C 1024.0 hPa NE 0.1 km/h 7.9 km/h 82.9% 0.0 mm 315 W/m2
13:39 14.9 °C 11.9 °C 1024.0 hPa Calm   7.9 km/h 82.2% 0.0 mm 323 W/m2
13:44 15 °C 11.7 °C 1024.0 hPa Calm   4 km/h 80.4% 0.0 mm 342 W/m2
13:49 15.3 °C 11.7 °C 1024.0 hPa SE 0.2 km/h 4 km/h 79% 0.0 mm 341 W/m2
13:53 15.9 °C 12.2 °C 1024.0 hPa SSE 2 km/h 7.9 km/h 78.7% 0.0 mm 339 W/m2
13:59 15.9 °C 12.1 °C 1024.0 hPa Calm     78.1% 0.0 mm 329 W/m2
14:04 15.9 °C 12.3 °C 1024.0 hPa Calm   4 km/h 79.1% 0.0 mm 194 W/m2
14:09 15.9 °C 12.3 °C 1023.7 hPa Calm   4 km/h 79% 0.0 mm 271 W/m2
14:14 16 °C 12.5 °C 1023.7 hPa Calm   7.9 km/h 79.5% 0.0 mm 120 W/m2
14:19 15.9 °C 12.6 °C 1023.4 hPa Calm   7.9 km/h 80.6% 0.0 mm 272 W/m2
14:23 15.8 °C 12.5 °C 1023.7 hPa Calm     81% 0.0 mm 103 W/m2
14:29 15.5 °C 12.3 °C 1023.4 hPa Calm     81% 0.0 mm 96 W/m2
14:34 14.8 °C 11.7 °C 1023.4 hPa Calm     81.3% 0.0 mm 95 W/m2
14:39 14.8 °C 11.7 °C 1023.4 hPa Calm     81.8% 0.0 mm 108 W/m2
14:44 14.8 °C 11.8 °C 1023.4 hPa Calm     82% 0.0 mm 114 W/m2
14:49 14.8 °C 11.6 °C 1023.4 hPa Calm     81% 0.0 mm 105 W/m2
14:54 14.9 °C 11.7 °C 1023.4 hPa Calm     81% 0.0 mm 105 W/m2
14:59 14.9 °C 11.7 °C 1023.4 hPa Calm     80.7% 0.0 mm 105 W/m2
15:04 14.9 °C 11.5 °C 1023.4 hPa Calm     80% 0.0 mm 184 W/m2
15:09 14.9 °C 11.5 °C 1023.4 hPa Calm     80% 0.0 mm 179 W/m2
15:14 15.2 °C 11.8 °C 1023.4 hPa Calm     80% 0.0 mm 164 W/m2
15:19 15.2 °C 11.8 °C 1023.4 hPa Calm     80% 0.0 mm 103 W/m2
15:24 15.2 °C 12 °C 1023.4 hPa Calm     80.9% 0.0 mm 84 W/m2
15:29 15.1 °C 12 °C 1023.4 hPa Calm     81.6% 0.0 mm 80 W/m2
15:34 14.8 °C 11.6 °C 1023.4 hPa Calm     81.2% 0.0 mm 76 W/m2
15:39 14.7 °C 11.7 °C 1023.4 hPa Calm     82.3% 0.0 mm 63 W/m2
15:44 14.6 °C 11.8 °C 1023.4 hPa Calm     83.7% 0.0 mm 59 W/m2
15:49 14.5 °C 12 °C 1023.4 hPa Calm     84.7% 0.0 mm 55 W/m2
15:54 13.8 °C 11.3 °C 1023.7 hPa Calm     85.3% 0.0 mm 51 W/m2
15:59 13.7 °C 11.4 °C 1023.7 hPa Calm     85.9% 0.0 mm 47 W/m2
16:04 13.7 °C 11.5 °C 1023.4 hPa Calm     86.3% 0.0 mm 44 W/m2
16:09 13.6 °C 11.5 °C 1023.7 hPa Calm     87% 0.0 mm 41 W/m2
16:14 13.2 °C 11.2 °C 1023.7 hPa Calm     87.3% 0.0 mm 39 W/m2
16:19 13.1 °C 11 °C 1023.7 hPa Calm     87.1% 0.0 mm 38 W/m2
16:24 13.1 °C 11 °C 1023.7 hPa Calm     87.2% 0.0 mm 36 W/m2
16:29 13.1 °C 11.1 °C 1023.4 hPa Calm     87.5% 0.0 mm 34 W/m2
16:34 12.9 °C 10.8 °C 1023.7 hPa Calm     87.2% 0.0 mm 32 W/m2
16:39 12.8 °C 10.7 °C 1023.7 hPa Calm     87% 0.0 mm 28 W/m2
16:44 12.8 °C 10.7 °C 1023.7 hPa Calm     87% 0.0 mm 26 W/m2
16:49 12.8 °C 10.7 °C 1023.7 hPa Calm     87% 0.0 mm 22 W/m2
16:54 12.7 °C 10.6 °C 1023.7 hPa Calm     86.8% 0.0 mm 18 W/m2
16:59 12.7 °C 10.2 °C 1023.7 hPa Calm     84.7% 0.0 mm 12 W/m2
17:04 12.7 °C 10.1 °C 1023.7 hPa Calm     84% 0.0 mm 8 W/m2
17:09 12.7 °C 10 °C 1024.0 hPa Calm     83.6% 0.0 mm 5 W/m2
17:14 12.6 °C 10 °C 1024.0 hPa Calm     83.8% 0.0 mm 3 W/m2
17:19 12.6 °C 9.7 °C 1024.0 hPa Calm     82.7% 0.0 mm 0 W/m2
17:24 12.6 °C 9.6 °C 1024.0 hPa Calm     82% 0.0 mm 0 W/m2
17:29 12.6 °C 9.6 °C 1024.0 hPa Calm     82% 0.0 mm 0 W/m2
17:34 12.5 °C 9.6 °C 1024.0 hPa Calm     82.4% 0.0 mm 0 W/m2
17:39 12.5 °C 9.5 °C 1024.4 hPa Calm     82.1% 0.0 mm 0 W/m2
17:44 12.5 °C 9.5 °C 1024.4 hPa Calm   4 km/h 82.1% 0.0 mm 0 W/m2
17:49 12.5 °C 9.6 °C 1024.4 hPa Calm   4 km/h 82.6% 0.0 mm 0 W/m2
17:54 12.3 °C 9.5 °C 1024.4 hPa Calm     83% 0.0 mm 0 W/m2
17:59 12.3 °C 9.5 °C 1024.4 hPa Calm     83% 0.0 mm 0 W/m2
18:04 12.3 °C 9.4 °C 1024.7 hPa Calm     82.6% 0.0 mm 0 W/m2
18:09 12.3 °C 9.5 °C 1024.4 hPa Calm     83% 0.0 mm 0 W/m2
18:14 12.2 °C 9.5 °C 1024.4 hPa Calm     83.8% 0.0 mm 0 W/m2
18:19 12.2 °C 9.5 °C 1024.7 hPa Calm     83.8% 0.0 mm 0 W/m2
18:24 12.2 °C 9.6 °C 1025.1 hPa Calm     84% 0.0 mm 0 W/m2
18:29 12.2 °C 9.6 °C 1025.1 hPa Calm     84% 0.0 mm 0 W/m2
18:34 12.1 °C 9.5 °C 1025.1 hPa Calm     84.1% 0.0 mm 0 W/m2
18:39 12.1 °C 9.5 °C 1025.1 hPa Calm     84% 0.0 mm 0 W/m2
18:44 12.1 °C 9.5 °C 1025.1 hPa Calm     84.2% 0.0 mm 0 W/m2
18:49 12.1 °C 9.6 °C 1025.1 hPa Calm     84.4% 0.0 mm 0 W/m2
18:54 12.5 °C 9.8 °C 1025.1 hPa Calm     83.3% 0.0 mm 0 W/m2
18:59 12.7 °C 10 °C 1025.1 hPa Calm     83.4% 0.0 mm 0 W/m2
19:04 12.7 °C 10.2 °C 1025.1 hPa Calm     84.7% 0.0 mm 0 W/m2
19:09 12.6 °C 10.1 °C 1025.1 hPa Calm     85% 0.0 mm 0 W/m2
19:14 12.5 °C 9.9 °C 1025.1 hPa Calm     84.4% 0.0 mm 0 W/m2
19:19 12.4 °C 9.8 °C 1025.4 hPa Calm     84.2% 0.0 mm 0 W/m2
19:24 12.4 °C 9.9 °C 1025.4 hPa Calm     84.8% 0.0 mm 0 W/m2
19:29 12.5 °C 10 °C 1025.7 hPa Calm     85.2% 0.0 mm 0 W/m2
19:34 12.4 °C 10.1 °C 1025.7 hPa Calm     86% 0.0 mm 0 W/m2
19:39 12.3 °C 10 °C 1025.4 hPa Calm     86% 0.0 mm 0 W/m2
19:44 12.3 °C 10 °C 1025.4 hPa Calm     86% 0.0 mm 0 W/m2
19:49 12.3 °C 10.1 °C 1025.4 hPa Calm     86.7% 0.0 mm 0 W/m2
19:54 12.3 °C 10.1 °C 1025.4 hPa Calm     86.7% 0.0 mm 0 W/m2
19:59 12.2 °C 10.3 °C 1025.4 hPa Calm     87.6% 0.0 mm 0 W/m2
20:04 12.2 °C 10.3 °C 1025.4 hPa Calm     88% 0.0 mm 0 W/m2
20:09 12.2 °C 10.2 °C 1025.7 hPa Calm     87.7% 0.0 mm 0 W/m2
20:14 12.2 °C 10.2 °C 1025.7 hPa Calm     87.8% 0.0 mm 0 W/m2
20:19 12.2 °C 10 °C 1025.7 hPa Calm     86.4% 0.0 mm 0 W/m2
20:24 12.2 °C 10.1 °C 1025.7 hPa Calm     87% 0.0 mm 0 W/m2
20:29 12.3 °C 10 °C 1025.7 hPa Calm     86.4% 0.0 mm 0 W/m2
20:34 12.4 °C 10.3 °C 1025.7 hPa Calm     87% 0.0 mm 0 W/m2
20:39 12.5 °C 10.5 °C 1025.7 hPa Calm     87.4% 0.0 mm 0 W/m2
20:44 12.5 °C 10.6 °C 1025.7 hPa Calm     88% 0.0 mm 0 W/m2
20:49 12.5 °C 10.6 °C 1025.7 hPa Calm     88% 0.0 mm 0 W/m2
20:54 12.5 °C 10.6 °C 1025.7 hPa Calm     87.7% 0.0 mm 0 W/m2
20:59 12.6 °C 10.5 °C 1025.7 hPa Calm     87.2% 0.0 mm 0 W/m2
21:04 12.5 °C 10.5 °C 1025.7 hPa Calm     87.1% 0.0 mm 0 W/m2
21:09 12.5 °C 10.4 °C 1025.7 hPa Calm     87.2% 0.0 mm 0 W/m2
21:14 12.5 °C 10.5 °C 1025.7 hPa Calm     87.3% 0.0 mm 0 W/m2
21:19 12.5 °C 10.4 °C 1025.7 hPa Calm     86.8% 0.0 mm 0 W/m2
21:24 12.5 °C 10.2 °C 1026.1 hPa Calm     86.1% 0.0 mm 0 W/m2
21:29 12.5 °C 9.9 °C 1026.1 hPa Calm     84.3% 0.0 mm 0 W/m2
21:34 12.6 °C 9.9 °C 1026.1 hPa Calm     83.3% 0.0 mm 0 W/m2
21:39 12.8 °C 9.9 °C 1026.1 hPa South 1.2 km/h 7.9 km/h 82.3% 0.0 mm 0 W/m2
21:44 12.8 °C 9.8 °C 1026.1 hPa SSW 0.6 km/h 7.9 km/h 82% 0.0 mm 0 W/m2
21:49 12.8 °C 9.9 °C 1026.1 hPa South 0.1 km/h 4 km/h 82.3% 0.0 mm 0 W/m2
21:54 12.9 °C 10.1 °C 1026.1 hPa Calm   7.9 km/h 83% 0.0 mm 0 W/m2
21:59 13 °C 10.2 °C 1026.1 hPa South 0.2 km/h 7.9 km/h 83% 0.0 mm 0 W/m2
22:04 13 °C 10.3 °C 1026.1 hPa Calm     83.3% 0.0 mm 0 W/m2
22:09 12.9 °C 10.3 °C 1026.1 hPa Calm     83.9% 0.0 mm 0 W/m2
22:14 12.9 °C 10.2 °C 1026.1 hPa Calm     83.9% 0.0 mm 0 W/m2
22:19 12.8 °C 10.1 °C 1026.1 hPa Calm     83.9% 0.0 mm 0 W/m2
22:24 12.7 °C 10 °C 1026.1 hPa Calm     83.7% 0.0 mm 0 W/m2
22:29 12.7 °C 9.9 °C 1026.1 hPa Calm     83.2% 0.0 mm 0 W/m2
22:34 12.7 °C 9.9 °C 1026.1 hPa Calm     83% 0.0 mm 0 W/m2
22:39 12.7 °C 9.9 °C 1026.1 hPa Calm     83% 0.0 mm 0 W/m2
22:44 12.7 °C 9.9 °C 1025.7 hPa Calm     83% 0.0 mm 0 W/m2
22:49 12.7 °C 9.8 °C 1025.7 hPa Calm     82.7% 0.0 mm 0 W/m2
22:54 12.8 °C 9.9 °C 1026.1 hPa SW 0.2 km/h 4 km/h 82.5% 0.0 mm 0 W/m2
22:59 12.9 °C 9.8 °C 1025.7 hPa SSW 0.3 km/h 4 km/h 81.7% 0.0 mm 0 W/m2
23:04 12.9 °C 9.7 °C 1026.1 hPa Calm     81% 0.0 mm 0 W/m2
23:09 12.9 °C 9.7 °C 1025.7 hPa Calm     81% 0.0 mm 0 W/m2
23:14 12.9 °C 9.8 °C 1025.7 hPa Calm     81.7% 0.0 mm 0 W/m2
23:19 12.8 °C 9.6 °C 1025.7 hPa Calm     81.2% 0.0 mm 0 W/m2
23:24 12.8 °C 9.6 °C 1026.1 hPa Calm     81% 0.0 mm 0 W/m2
23:29 12.8 °C 9.6 °C 1026.1 hPa Calm     81.2% 0.0 mm 0 W/m2
23:34 12.8 °C 9.7 °C 1026.1 hPa Calm     81% 0.0 mm 0 W/m2
23:39 12.9 °C 9.7 °C 1026.1 hPa Calm     81% 0.0 mm 0 W/m2
23:44 12.9 °C 9.7 °C 1026.1 hPa Calm     81% 0.0 mm 0 W/m2
23:49 12.8 °C 9.7 °C 1026.1 hPa Calm     81.8% 0.0 mm 0 W/m2
23:54 12.8 °C 9.8 °C 1026.1 hPa Calm     82% 0.0 mm 0 W/m2
23:59 12.7 °C 9.7 °C 1026.1 hPa Calm     82% 0.0 mm 0 W/m2
Juneau County Weather
Compliments of Weather Underground - 2 mb